sensor_id;sensor_type;location;lat;lon;timestamp;P1;durP1;ratioP1;P2;durP2;ratioP2
36321;SDS011;23564;48.290;11.460;2022-08-01T00:00:22;2.60;;;1.90;;
36321;SDS011;23564;48.290;11.460;2022-08-01T00:02:48;3.00;;;2.47;;
36321;SDS011;23564;48.290;11.460;2022-08-01T00:05:13;4.03;;;1.95;;
36321;SDS011;23564;48.290;11.460;2022-08-01T00:07:39;4.55;;;2.22;;
36321;SDS011;23564;48.290;11.460;2022-08-01T00:10:10;2.97;;;1.80;;
36321;SDS011;23564;48.290;11.460;2022-08-01T00:12:39;3.20;;;2.10;;
36321;SDS011;23564;48.290;11.460;2022-08-01T00:15:05;2.33;;;1.88;;
36321;SDS011;23564;48.290;11.460;2022-08-01T00:17:33;2.00;;;1.80;;
36321;SDS011;23564;48.290;11.460;2022-08-01T00:19:59;4.18;;;1.65;;
36321;SDS011;23564;48.290;11.460;2022-08-01T00:22:24;2.85;;;1.70;;
36321;SDS011;23564;48.290;11.460;2022-08-01T00:24:50;4.10;;;2.50;;
36321;SDS011;23564;48.290;11.460;2022-08-01T00:27:16;3.78;;;1.92;;
36321;SDS011;23564;48.290;11.460;2022-08-01T00:29:41;4.78;;;1.88;;
36321;SDS011;23564;48.290;11.460;2022-08-01T00:32:07;2.40;;;1.80;;
36321;SDS011;23564;48.290;11.460;2022-08-01T00:34:33;3.95;;;1.77;;
36321;SDS011;23564;48.290;11.460;2022-08-01T00:36:58;2.85;;;1.80;;
36321;SDS011;23564;48.290;11.460;2022-08-01T00:39:24;2.42;;;1.75;;
36321;SDS011;23564;48.290;11.460;2022-08-01T00:41:49;4.43;;;1.60;;
36321;SDS011;23564;48.290;11.460;2022-08-01T00:44:15;4.45;;;2.10;;
36321;SDS011;23564;48.290;11.460;2022-08-01T00:46:41;3.75;;;2.10;;
36321;SDS011;23564;48.290;11.460;2022-08-01T00:49:07;2.67;;;2.03;;
36321;SDS011;23564;48.290;11.460;2022-08-01T00:51:33;3.22;;;1.83;;
36321;SDS011;23564;48.290;11.460;2022-08-01T00:53:59;3.30;;;2.03;;
36321;SDS011;23564;48.290;11.460;2022-08-01T00:56:26;3.78;;;1.90;;
36321;SDS011;23564;48.290;11.460;2022-08-01T00:58:53;2.95;;;1.90;;
36321;SDS011;23564;48.290;11.460;2022-08-01T01:01:19;6.43;;;1.95;;
36321;SDS011;23564;48.290;11.460;2022-08-01T01:03:47;3.28;;;1.98;;
36321;SDS011;23564;48.290;11.460;2022-08-01T01:12:15;2.85;;;1.88;;
36321;SDS011;23564;48.290;11.460;2022-08-01T01:17:27;3.60;;;1.90;;
36321;SDS011;23564;48.290;11.460;2022-08-01T01:20:01;3.67;;;1.77;;
36321;SDS011;23564;48.290;11.460;2022-08-01T01:30:40;6.05;;;2.40;;
36321;SDS011;23564;48.290;11.460;2022-08-01T01:33:08;4.68;;;2.13;;
36321;SDS011;23564;48.290;11.460;2022-08-01T01:35:36;7.22;;;2.53;;
36321;SDS011;23564;48.290;11.460;2022-08-01T01:38:25;2.30;;;2.03;;
36321;SDS011;23564;48.290;11.460;2022-08-01T01:40:54;2.13;;;1.92;;
36321;SDS011;23564;48.290;11.460;2022-08-01T01:43:21;2.63;;;1.90;;
36321;SDS011;23564;48.290;11.460;2022-08-01T01:45:48;3.92;;;1.80;;
36321;SDS011;23564;48.290;11.460;2022-08-01T01:48:18;3.30;;;2.30;;
36321;SDS011;23564;48.290;11.460;2022-08-01T01:50:46;2.50;;;2.00;;
36321;SDS011;23564;48.290;11.460;2022-08-01T01:53:14;7.50;;;2.05;;
36321;SDS011;23564;48.290;11.460;2022-08-01T01:55:43;2.67;;;2.05;;
36321;SDS011;23564;48.290;11.460;2022-08-01T01:58:12;3.83;;;2.15;;
36321;SDS011;23564;48.290;11.460;2022-08-01T02:00:40;3.67;;;2.20;;
36321;SDS011;23564;48.290;11.460;2022-08-01T02:03:07;3.35;;;2.30;;
36321;SDS011;23564;48.290;11.460;2022-08-01T02:05:36;6.78;;;2.22;;
36321;SDS011;23564;48.290;11.460;2022-08-01T02:08:04;4.20;;;1.85;;
36321;SDS011;23564;48.290;11.460;2022-08-01T02:10:30;4.22;;;2.13;;
36321;SDS011;23564;48.290;11.460;2022-08-01T02:12:58;4.40;;;2.38;;
36321;SDS011;23564;48.290;11.460;2022-08-01T02:15:28;5.13;;;2.05;;
36321;SDS011;23564;48.290;11.460;2022-08-01T02:17:56;4.03;;;1.80;;
36321;SDS011;23564;48.290;11.460;2022-08-01T02:20:24;4.38;;;1.88;;
36321;SDS011;23564;48.290;11.460;2022-08-01T02:23:00;2.92;;;2.20;;
36321;SDS011;23564;48.290;11.460;2022-08-01T02:25:38;2.92;;;2.20;;
36321;SDS011;23564;48.290;11.460;2022-08-01T02:28:10;2.60;;;2.05;;
36321;SDS011;23564;48.290;11.460;2022-08-01T02:30:44;2.60;;;2.25;;
36321;SDS011;23564;48.290;11.460;2022-08-01T02:33:15;4.68;;;2.10;;
36321;SDS011;23564;48.290;11.460;2022-08-01T02:35:57;4.18;;;2.33;;
36321;SDS011;23564;48.290;11.460;2022-08-01T02:38:24;3.45;;;2.05;;
36321;SDS011;23564;48.290;11.460;2022-08-01T02:40:54;4.03;;;2.10;;
36321;SDS011;23564;48.290;11.460;2022-08-01T02:43:23;2.65;;;2.22;;
36321;SDS011;23564;48.290;11.460;2022-08-01T02:45:54;2.83;;;2.53;;
36321;SDS011;23564;48.290;11.460;2022-08-01T02:48:22;5.22;;;2.25;;
36321;SDS011;23564;48.290;11.460;2022-08-01T02:50:51;2.55;;;2.05;;
36321;SDS011;23564;48.290;11.460;2022-08-01T02:53:20;3.13;;;2.20;;
36321;SDS011;23564;48.290;11.460;2022-08-01T02:55:48;3.15;;;2.40;;
36321;SDS011;23564;48.290;11.460;2022-08-01T02:58:16;3.92;;;2.30;;
36321;SDS011;23564;48.290;11.460;2022-08-01T03:00:44;6.22;;;1.90;;
36321;SDS011;23564;48.290;11.460;2022-08-01T03:03:12;6.88;;;2.45;;
36321;SDS011;23564;48.290;11.460;2022-08-01T03:05:39;4.72;;;2.13;;
36321;SDS011;23564;48.290;11.460;2022-08-01T03:08:06;3.40;;;2.28;;
36321;SDS011;23564;48.290;11.460;2022-08-01T03:10:35;5.07;;;2.30;;
36321;SDS011;23564;48.290;11.460;2022-08-01T03:13:03;5.40;;;2.70;;
36321;SDS011;23564;48.290;11.460;2022-08-01T03:15:32;4.97;;;2.72;;
36321;SDS011;23564;48.290;11.460;2022-08-01T03:18:01;5.97;;;2.38;;
36321;SDS011;23564;48.290;11.460;2022-08-01T03:20:29;3.05;;;2.38;;
36321;SDS011;23564;48.290;11.460;2022-08-01T03:22:57;4.03;;;2.35;;
36321;SDS011;23564;48.290;11.460;2022-08-01T03:25:28;4.07;;;2.25;;
36321;SDS011;23564;48.290;11.460;2022-08-01T03:27:56;7.03;;;2.58;;
36321;SDS011;23564;48.290;11.460;2022-08-01T03:30:24;3.42;;;2.25;;
36321;SDS011;23564;48.290;11.460;2022-08-01T03:32:52;3.88;;;2.20;;
36321;SDS011;23564;48.290;11.460;2022-08-01T03:35:18;3.95;;;2.30;;
36321;SDS011;23564;48.290;11.460;2022-08-01T03:37:46;3.72;;;2.50;;
36321;SDS011;23564;48.290;11.460;2022-08-01T03:40:33;2.63;;;1.98;;
36321;SDS011;23564;48.290;11.460;2022-08-01T03:43:10;6.25;;;2.47;;
36321;SDS011;23564;48.290;11.460;2022-08-01T03:45:41;3.55;;;2.42;;
36321;SDS011;23564;48.290;11.460;2022-08-01T03:48:14;3.83;;;2.15;;
36321;SDS011;23564;48.290;11.460;2022-08-01T03:50:44;5.22;;;1.90;;
36321;SDS011;23564;48.290;11.460;2022-08-01T03:53:13;3.05;;;2.20;;
36321;SDS011;23564;48.290;11.460;2022-08-01T03:55:41;3.08;;;2.17;;
36321;SDS011;23564;48.290;11.460;2022-08-01T03:58:08;4.32;;;2.55;;
36321;SDS011;23564;48.290;11.460;2022-08-01T04:00:35;2.55;;;2.10;;
36321;SDS011;23564;48.290;11.460;2022-08-01T04:03:08;4.38;;;2.00;;
36321;SDS011;23564;48.290;11.460;2022-08-01T04:05:35;3.33;;;2.30;;
36321;SDS011;23564;48.290;11.460;2022-08-01T04:08:01;3.70;;;2.17;;
36321;SDS011;23564;48.290;11.460;2022-08-01T04:10:27;2.80;;;2.05;;
36321;SDS011;23564;48.290;11.460;2022-08-01T04:12:53;5.07;;;2.22;;
36321;SDS011;23564;48.290;11.460;2022-08-01T04:15:19;3.63;;;2.20;;
36321;SDS011;23564;48.290;11.460;2022-08-01T04:17:45;4.13;;;1.75;;
36321;SDS011;23564;48.290;11.460;2022-08-01T04:20:11;3.33;;;2.10;;
36321;SDS011;23564;48.290;11.460;2022-08-01T04:22:37;2.88;;;2.17;;
36321;SDS011;23564;48.290;11.460;2022-08-01T04:25:04;2.75;;;2.30;;
36321;SDS011;23564;48.290;11.460;2022-08-01T04:27:36;4.75;;;1.92;;
36321;SDS011;23564;48.290;11.460;2022-08-01T04:30:05;2.97;;;2.20;;
36321;SDS011;23564;48.290;11.460;2022-08-01T04:32:33;3.78;;;2.17;;
36321;SDS011;23564;48.290;11.460;2022-08-01T04:35:01;3.75;;;2.20;;
36321;SDS011;23564;48.290;11.460;2022-08-01T04:37:29;3.58;;;2.20;;
36321;SDS011;23564;48.290;11.460;2022-08-01T04:39:56;5.80;;;2.28;;
36321;SDS011;23564;48.290;11.460;2022-08-01T04:42:24;2.67;;;2.13;;
36321;SDS011;23564;48.290;11.460;2022-08-01T04:44:50;3.42;;;2.28;;
36321;SDS011;23564;48.290;11.460;2022-08-01T04:47:15;2.58;;;1.58;;
36321;SDS011;23564;48.290;11.460;2022-08-01T04:49:42;3.72;;;2.50;;
36321;SDS011;23564;48.290;11.460;2022-08-01T04:52:10;4.55;;;2.22;;
36321;SDS011;23564;48.290;11.460;2022-08-01T04:54:36;3.38;;;2.15;;
36321;SDS011;23564;48.290;11.460;2022-08-01T04:57:02;3.85;;;2.10;;
36321;SDS011;23564;48.290;11.460;2022-08-01T04:59:29;2.08;;;1.52;;
36321;SDS011;23564;48.290;11.460;2022-08-01T05:02:04;1.92;;;1.65;;
36321;SDS011;23564;48.290;11.460;2022-08-01T05:04:30;5.47;;;2.40;;
36321;SDS011;23564;48.290;11.460;2022-08-01T05:06:56;5.50;;;2.42;;
36321;SDS011;23564;48.290;11.460;2022-08-01T05:09:21;4.40;;;2.00;;
36321;SDS011;23564;48.290;11.460;2022-08-01T05:11:47;5.10;;;2.08;;
36321;SDS011;23564;48.290;11.460;2022-08-01T05:14:13;5.25;;;2.50;;
36321;SDS011;23564;48.290;11.460;2022-08-01T05:16:38;4.53;;;2.30;;
36321;SDS011;23564;48.290;11.460;2022-08-01T05:19:04;5.45;;;2.13;;
36321;SDS011;23564;48.290;11.460;2022-08-01T05:21:29;2.97;;;2.17;;
36321;SDS011;23564;48.290;11.460;2022-08-01T05:23:55;6.55;;;2.83;;
36321;SDS011;23564;48.290;11.460;2022-08-01T05:26:21;5.10;;;1.92;;
36321;SDS011;23564;48.290;11.460;2022-08-01T05:28:46;5.75;;;2.00;;
36321;SDS011;23564;48.290;11.460;2022-08-01T05:31:12;2.55;;;1.95;;
36321;SDS011;23564;48.290;11.460;2022-08-01T05:33:37;6.10;;;2.17;;
36321;SDS011;23564;48.290;11.460;2022-08-01T05:36:03;2.70;;;2.08;;
36321;SDS011;23564;48.290;11.460;2022-08-01T05:38:29;5.82;;;2.42;;
36321;SDS011;23564;48.290;11.460;2022-08-01T05:40:54;10.77;;;2.17;;
36321;SDS011;23564;48.290;11.460;2022-08-01T05:43:20;5.30;;;2.38;;
36321;SDS011;23564;48.290;11.460;2022-08-01T05:45:46;3.63;;;2.05;;
36321;SDS011;23564;48.290;11.460;2022-08-01T05:48:12;2.78;;;2.05;;
36321;SDS011;23564;48.290;11.460;2022-08-01T05:50:37;3.58;;;1.98;;
36321;SDS011;23564;48.290;11.460;2022-08-01T05:53:03;6.50;;;1.98;;
36321;SDS011;23564;48.290;11.460;2022-08-01T05:55:28;2.60;;;1.92;;
36321;SDS011;23564;48.290;11.460;2022-08-01T05:57:54;2.70;;;1.80;;
36321;SDS011;23564;48.290;11.460;2022-08-01T06:00:20;3.15;;;1.92;;
36321;SDS011;23564;48.290;11.460;2022-08-01T06:02:46;2.35;;;2.00;;
36321;SDS011;23564;48.290;11.460;2022-08-01T06:05:11;3.40;;;1.80;;
36321;SDS011;23564;48.290;11.460;2022-08-01T06:07:37;2.95;;;1.80;;
36321;SDS011;23564;48.290;11.460;2022-08-01T06:10:04;6.30;;;2.10;;
36321;SDS011;23564;48.290;11.460;2022-08-01T06:12:34;4.70;;;2.33;;
36321;SDS011;23564;48.290;11.460;2022-08-01T06:15:00;2.45;;;2.10;;
36321;SDS011;23564;48.290;11.460;2022-08-01T06:17:26;2.40;;;1.75;;
36321;SDS011;23564;48.290;11.460;2022-08-01T06:19:51;2.47;;;1.83;;
36321;SDS011;23564;48.290;11.460;2022-08-01T06:22:17;6.30;;;1.90;;
36321;SDS011;23564;48.290;11.460;2022-08-01T06:24:42;2.13;;;1.60;;
36321;SDS011;23564;48.290;11.460;2022-08-01T06:27:08;3.92;;;2.03;;
36321;SDS011;23564;48.290;11.460;2022-08-01T06:29:33;3.72;;;2.10;;
36321;SDS011;23564;48.290;11.460;2022-08-01T06:31:59;2.30;;;1.63;;
36321;SDS011;23564;48.290;11.460;2022-08-01T06:34:25;4.18;;;2.08;;
36321;SDS011;23564;48.290;11.460;2022-08-01T06:36:51;3.45;;;1.90;;
36321;SDS011;23564;48.290;11.460;2022-08-01T06:39:16;3.25;;;1.73;;
36321;SDS011;23564;48.290;11.460;2022-08-01T06:41:42;2.47;;;2.00;;
36321;SDS011;23564;48.290;11.460;2022-08-01T06:44:11;3.08;;;1.90;;
36321;SDS011;23564;48.290;11.460;2022-08-01T06:46:36;3.28;;;2.33;;
36321;SDS011;23564;48.290;11.460;2022-08-01T06:49:02;5.43;;;2.05;;
36321;SDS011;23564;48.290;11.460;2022-08-01T06:51:28;4.90;;;2.17;;
36321;SDS011;23564;48.290;11.460;2022-08-01T06:53:54;5.70;;;1.98;;
36321;SDS011;23564;48.290;11.460;2022-08-01T06:56:20;2.80;;;1.92;;
36321;SDS011;23564;48.290;11.460;2022-08-01T06:58:45;3.22;;;2.03;;
36321;SDS011;23564;48.290;11.460;2022-08-01T07:01:11;3.15;;;2.20;;
36321;SDS011;23564;48.290;11.460;2022-08-01T07:03:37;3.08;;;1.80;;
36321;SDS011;23564;48.290;11.460;2022-08-01T07:06:03;4.18;;;2.17;;
36321;SDS011;23564;48.290;11.460;2022-08-01T07:08:28;5.25;;;2.13;;
36321;SDS011;23564;48.290;11.460;2022-08-01T07:10:54;3.38;;;2.35;;
36321;SDS011;23564;48.290;11.460;2022-08-01T07:13:24;3.22;;;2.08;;
36321;SDS011;23564;48.290;11.460;2022-08-01T07:15:51;2.15;;;1.95;;
36321;SDS011;23564;48.290;11.460;2022-08-01T07:18:17;2.35;;;1.95;;
36321;SDS011;23564;48.290;11.460;2022-08-01T07:20:43;3.60;;;1.88;;
36321;SDS011;23564;48.290;11.460;2022-08-01T07:23:11;3.05;;;2.00;;
36321;SDS011;23564;48.290;11.460;2022-08-01T07:25:37;4.78;;;2.42;;
36321;SDS011;23564;48.290;11.460;2022-08-01T07:28:02;3.28;;;2.22;;
36321;SDS011;23564;48.290;11.460;2022-08-01T07:30:28;7.68;;;2.10;;
36321;SDS011;23564;48.290;11.460;2022-08-01T07:32:54;3.97;;;2.00;;
36321;SDS011;23564;48.290;11.460;2022-08-01T07:35:19;4.18;;;1.98;;
36321;SDS011;23564;48.290;11.460;2022-08-01T07:37:45;3.22;;;1.77;;
36321;SDS011;23564;48.290;11.460;2022-08-01T07:40:10;7.38;;;2.85;;
36321;SDS011;23564;48.290;11.460;2022-08-01T07:42:36;2.10;;;1.80;;
36321;SDS011;23564;48.290;11.460;2022-08-01T07:45:02;2.42;;;1.70;;
36321;SDS011;23564;48.290;11.460;2022-08-01T07:47:28;3.45;;;2.10;;
36321;SDS011;23564;48.290;11.460;2022-08-01T07:49:58;3.55;;;1.92;;
36321;SDS011;23564;48.290;11.460;2022-08-01T07:52:25;3.75;;;2.55;;
36321;SDS011;23564;48.290;11.460;2022-08-01T07:54:51;3.05;;;2.30;;
36321;SDS011;23564;48.290;11.460;2022-08-01T07:57:17;3.15;;;2.05;;
36321;SDS011;23564;48.290;11.460;2022-08-01T07:59:43;2.72;;;2.00;;
36321;SDS011;23564;48.290;11.460;2022-08-01T08:02:09;5.05;;;2.00;;
36321;SDS011;23564;48.290;11.460;2022-08-01T08:04:34;4.63;;;1.80;;
36321;SDS011;23564;48.290;11.460;2022-08-01T08:07:00;2.53;;;2.15;;
36321;SDS011;23564;48.290;11.460;2022-08-01T08:09:26;4.30;;;2.60;;
36321;SDS011;23564;48.290;11.460;2022-08-01T08:11:51;4.00;;;2.25;;
36321;SDS011;23564;48.290;11.460;2022-08-01T08:14:17;5.03;;;2.40;;
36321;SDS011;23564;48.290;11.460;2022-08-01T08:16:43;3.38;;;2.30;;
36321;SDS011;23564;48.290;11.460;2022-08-01T08:19:10;6.75;;;2.67;;
36321;SDS011;23564;48.290;11.460;2022-08-01T08:21:36;3.35;;;2.25;;
36321;SDS011;23564;48.290;11.460;2022-08-01T08:24:02;3.70;;;2.33;;
36321;SDS011;23564;48.290;11.460;2022-08-01T08:26:54;5.18;;;2.50;;
36321;SDS011;23564;48.290;11.460;2022-08-01T08:29:23;9.15;;;2.20;;
36321;SDS011;23564;48.290;11.460;2022-08-01T08:31:50;3.10;;;2.25;;
36321;SDS011;23564;48.290;11.460;2022-08-01T08:34:18;4.70;;;2.47;;
36321;SDS011;23564;48.290;11.460;2022-08-01T08:36:44;2.63;;;2.00;;
36321;SDS011;23564;48.290;11.460;2022-08-01T08:39:09;5.93;;;3.00;;
36321;SDS011;23564;48.290;11.460;2022-08-01T08:41:35;3.13;;;2.25;;
36321;SDS011;23564;48.290;11.460;2022-08-01T08:44:01;3.42;;;2.10;;
36321;SDS011;23564;48.290;11.460;2022-08-01T08:46:28;3.67;;;2.25;;
36321;SDS011;23564;48.290;11.460;2022-08-01T08:48:57;3.35;;;2.38;;
36321;SDS011;23564;48.290;11.460;2022-08-01T08:51:24;3.95;;;2.47;;
36321;SDS011;23564;48.290;11.460;2022-08-01T08:53:51;3.10;;;2.60;;
36321;SDS011;23564;48.290;11.460;2022-08-01T08:56:20;4.35;;;2.53;;
36321;SDS011;23564;48.290;11.460;2022-08-01T08:58:48;6.10;;;2.40;;
36321;SDS011;23564;48.290;11.460;2022-08-01T09:01:13;3.47;;;2.22;;
36321;SDS011;23564;48.290;11.460;2022-08-01T09:03:39;3.08;;;2.40;;
36321;SDS011;23564;48.290;11.460;2022-08-01T09:06:05;6.90;;;2.35;;
36321;SDS011;23564;48.290;11.460;2022-08-01T09:08:32;5.40;;;2.25;;
36321;SDS011;23564;48.290;11.460;2022-08-01T09:10:58;3.20;;;2.20;;
36321;SDS011;23564;48.290;11.460;2022-08-01T09:13:23;2.47;;;1.98;;
36321;SDS011;23564;48.290;11.460;2022-08-01T09:15:50;3.13;;;2.50;;
36321;SDS011;23564;48.290;11.460;2022-08-01T09:18:27;3.28;;;2.30;;
36321;SDS011;23564;48.290;11.460;2022-08-01T09:23:38;7.30;;;2.33;;
36321;SDS011;23564;48.290;11.460;2022-08-01T09:26:07;3.30;;;2.15;;
36321;SDS011;23564;48.290;11.460;2022-08-01T09:28:40;3.58;;;2.22;;
36321;SDS011;23564;48.290;11.460;2022-08-01T09:31:11;2.95;;;1.90;;
36321;SDS011;23564;48.290;11.460;2022-08-01T09:33:55;2.88;;;2.08;;
36321;SDS011;23564;48.290;11.460;2022-08-01T09:36:43;4.55;;;2.22;;
36321;SDS011;23564;48.290;11.460;2022-08-01T09:39:13;5.35;;;1.83;;
36321;SDS011;23564;48.290;11.460;2022-08-01T09:41:39;4.55;;;2.45;;
36321;SDS011;23564;48.290;11.460;2022-08-01T09:44:05;3.80;;;2.00;;
36321;SDS011;23564;48.290;11.460;2022-08-01T09:46:31;2.42;;;1.98;;
36321;SDS011;23564;48.290;11.460;2022-08-01T09:49:00;2.42;;;1.65;;
36321;SDS011;23564;48.290;11.460;2022-08-01T09:51:28;2.55;;;1.42;;
36321;SDS011;23564;48.290;11.460;2022-08-01T09:53:55;2.42;;;1.75;;
36321;SDS011;23564;48.290;11.460;2022-08-01T09:56:21;2.30;;;1.63;;
36321;SDS011;23564;48.290;11.460;2022-08-01T09:58:55;2.65;;;1.73;;
36321;SDS011;23564;48.290;11.460;2022-08-01T10:01:22;2.30;;;1.85;;
36321;SDS011;23564;48.290;11.460;2022-08-01T10:04:10;4.72;;;1.67;;
36321;SDS011;23564;48.290;11.460;2022-08-01T10:06:38;3.38;;;1.65;;
36321;SDS011;23564;48.290;11.460;2022-08-01T10:09:07;2.17;;;1.45;;
36321;SDS011;23564;48.290;11.460;2022-08-01T10:11:33;2.67;;;1.80;;
36321;SDS011;23564;48.290;11.460;2022-08-01T10:14:04;2.05;;;1.60;;
36321;SDS011;23564;48.290;11.460;2022-08-01T10:16:30;5.78;;;1.73;;
36321;SDS011;23564;48.290;11.460;2022-08-01T10:18:58;3.00;;;1.25;;
36321;SDS011;23564;48.290;11.460;2022-08-01T10:21:26;5.35;;;1.65;;
36321;SDS011;23564;48.290;11.460;2022-08-01T10:23:53;2.55;;;1.30;;
36321;SDS011;23564;48.290;11.460;2022-08-01T10:26:21;3.45;;;1.50;;
36321;SDS011;23564;48.290;11.460;2022-08-01T10:28:49;1.48;;;1.10;;
36321;SDS011;23564;48.290;11.460;2022-08-01T10:31:16;3.10;;;1.60;;
36321;SDS011;23564;48.290;11.460;2022-08-01T10:33:43;1.92;;;1.27;;
36321;SDS011;23564;48.290;11.460;2022-08-01T10:36:09;1.42;;;1.08;;
36321;SDS011;23564;48.290;11.460;2022-08-01T10:38:35;1.35;;;1.10;;
36321;SDS011;23564;48.290;11.460;2022-08-01T10:41:02;1.52;;;1.10;;
36321;SDS011;23564;48.290;11.460;2022-08-01T10:43:28;1.13;;;0.90;;
36321;SDS011;23564;48.290;11.460;2022-08-01T10:45:54;1.33;;;1.00;;
36321;SDS011;23564;48.290;11.460;2022-08-01T10:48:22;3.85;;;0.95;;
36321;SDS011;23564;48.290;11.460;2022-08-01T10:51:00;1.55;;;1.13;;
36321;SDS011;23564;48.290;11.460;2022-08-01T10:53:28;2.17;;;1.35;;
36321;SDS011;23564;48.290;11.460;2022-08-01T10:58:27;4.05;;;0.80;;
36321;SDS011;23564;48.290;11.460;2022-08-01T11:01:12;1.90;;;0.80;;
36321;SDS011;23564;48.290;11.460;2022-08-01T11:03:38;8.65;;;1.40;;
36321;SDS011;23564;48.290;11.460;2022-08-01T11:06:03;1.90;;;1.13;;
36321;SDS011;23564;48.290;11.460;2022-08-01T11:08:29;2.15;;;0.98;;
36321;SDS011;23564;48.290;11.460;2022-08-01T11:11:00;0.85;;;0.80;;
36321;SDS011;23564;48.290;11.460;2022-08-01T11:14:12;2.15;;;1.02;;
36321;SDS011;23564;48.290;11.460;2022-08-01T11:16:38;2.78;;;1.15;;
36321;SDS011;23564;48.290;11.460;2022-08-01T11:19:05;1.90;;;1.17;;
36321;SDS011;23564;48.290;11.460;2022-08-01T11:22:20;3.15;;;0.85;;
36321;SDS011;23564;48.290;11.460;2022-08-01T11:27:15;2.97;;;1.00;;
36321;SDS011;23564;48.290;11.460;2022-08-01T11:32:33;5.63;;;1.30;;
36321;SDS011;23564;48.290;11.460;2022-08-01T11:35:10;1.38;;;0.80;;
36321;SDS011;23564;48.290;11.460;2022-08-01T11:37:35;1.92;;;1.20;;
36321;SDS011;23564;48.290;11.460;2022-08-01T11:42:50;4.40;;;0.85;;
36321;SDS011;23564;48.290;11.460;2022-08-01T11:45:48;1.60;;;0.88;;
36321;SDS011;23564;48.290;11.460;2022-08-01T11:48:19;1.50;;;1.02;;
36321;SDS011;23564;48.290;11.460;2022-08-01T11:50:45;2.27;;;1.10;;
36321;SDS011;23564;48.290;11.460;2022-08-01T11:53:11;3.67;;;1.38;;
36321;SDS011;23564;48.290;11.460;2022-08-01T11:55:43;1.15;;;0.98;;
36321;SDS011;23564;48.290;11.460;2022-08-01T11:58:13;3.00;;;0.98;;
36321;SDS011;23564;48.290;11.460;2022-08-01T12:00:40;1.70;;;1.00;;
36321;SDS011;23564;48.290;11.460;2022-08-01T12:03:07;3.70;;;1.10;;
36321;SDS011;23564;48.290;11.460;2022-08-01T12:05:36;4.53;;;1.20;;
36321;SDS011;23564;48.290;11.460;2022-08-01T12:08:02;1.15;;;1.00;;
36321;SDS011;23564;48.290;11.460;2022-08-01T12:10:30;1.60;;;1.10;;
36321;SDS011;23564;48.290;11.460;2022-08-01T12:13:02;2.05;;;0.93;;
36321;SDS011;23564;48.290;11.460;2022-08-01T12:15:30;6.93;;;1.10;;
36321;SDS011;23564;48.290;11.460;2022-08-01T12:17:59;3.08;;;0.90;;
36321;SDS011;23564;48.290;11.460;2022-08-01T12:20:27;1.08;;;0.90;;
36321;SDS011;23564;48.290;11.460;2022-08-01T12:22:54;1.55;;;0.80;;
36321;SDS011;23564;48.290;11.460;2022-08-01T12:25:21;2.42;;;0.80;;
36321;SDS011;23564;48.290;11.460;2022-08-01T12:27:48;3.92;;;1.27;;
36321;SDS011;23564;48.290;11.460;2022-08-01T12:30:17;1.02;;;0.70;;
36321;SDS011;23564;48.290;11.460;2022-08-01T12:32:49;1.90;;;0.93;;
36321;SDS011;23564;48.290;11.460;2022-08-01T12:35:16;2.03;;;0.90;;
36321;SDS011;23564;48.290;11.460;2022-08-01T12:37:48;1.58;;;0.80;;
36321;SDS011;23564;48.290;11.460;2022-08-01T12:40:18;4.13;;;1.13;;
36321;SDS011;23564;48.290;11.460;2022-08-01T12:42:46;1.42;;;0.95;;
36321;SDS011;23564;48.290;11.460;2022-08-01T12:45:17;3.95;;;1.10;;
36321;SDS011;23564;48.290;11.460;2022-08-01T12:47:45;2.95;;;1.00;;
36321;SDS011;23564;48.290;11.460;2022-08-01T12:50:16;2.78;;;0.85;;
36321;SDS011;23564;48.290;11.460;2022-08-01T12:52:44;2.83;;;0.98;;
36321;SDS011;23564;48.290;11.460;2022-08-01T12:55:19;2.00;;;0.90;;
36321;SDS011;23564;48.290;11.460;2022-08-01T12:57:46;1.90;;;1.10;;
36321;SDS011;23564;48.290;11.460;2022-08-01T13:00:19;1.80;;;0.95;;
36321;SDS011;23564;48.290;11.460;2022-08-01T13:02:47;2.10;;;0.90;;
36321;SDS011;23564;48.290;11.460;2022-08-01T13:05:14;5.07;;;0.88;;
36321;SDS011;23564;48.290;11.460;2022-08-01T13:10:24;4.65;;;1.23;;
36321;SDS011;23564;48.290;11.460;2022-08-01T13:12:52;4.40;;;1.20;;
36321;SDS011;23564;48.290;11.460;2022-08-01T13:15:31;2.03;;;1.10;;
36321;SDS011;23564;48.290;11.460;2022-08-01T13:18:00;2.58;;;0.98;;
36321;SDS011;23564;48.290;11.460;2022-08-01T13:20:46;3.58;;;1.00;;
36321;SDS011;23564;48.290;11.460;2022-08-01T13:23:15;1.77;;;1.15;;
36321;SDS011;23564;48.290;11.460;2022-08-01T13:25:49;3.58;;;1.38;;
36321;SDS011;23564;48.290;11.460;2022-08-01T13:28:24;3.03;;;0.90;;
36321;SDS011;23564;48.290;11.460;2022-08-01T13:30:51;2.88;;;1.25;;
36321;SDS011;23564;48.290;11.460;2022-08-01T13:33:17;1.85;;;0.90;;
36321;SDS011;23564;48.290;11.460;2022-08-01T13:35:43;1.17;;;0.90;;
36321;SDS011;23564;48.290;11.460;2022-08-01T13:38:08;1.45;;;0.80;;
36321;SDS011;23564;48.290;11.460;2022-08-01T13:40:34;3.10;;;1.08;;
36321;SDS011;23564;48.290;11.460;2022-08-01T13:43:00;7.20;;;1.08;;
36321;SDS011;23564;48.290;11.460;2022-08-01T13:45:25;1.98;;;1.00;;
36321;SDS011;23564;48.290;11.460;2022-08-01T13:47:51;4.28;;;1.50;;
36321;SDS011;23564;48.290;11.460;2022-08-01T13:50:16;3.30;;;1.17;;
36321;SDS011;23564;48.290;11.460;2022-08-01T13:52:42;3.35;;;1.13;;
36321;SDS011;23564;48.290;11.460;2022-08-01T13:55:08;3.00;;;1.08;;
36321;SDS011;23564;48.290;11.460;2022-08-01T13:57:33;3.20;;;0.95;;
36321;SDS011;23564;48.290;11.460;2022-08-01T13:59:59;0.90;;;0.82;;
36321;SDS011;23564;48.290;11.460;2022-08-01T14:02:25;2.25;;;1.20;;
36321;SDS011;23564;48.290;11.460;2022-08-01T14:04:52;1.73;;;0.80;;
36321;SDS011;23564;48.290;11.460;2022-08-01T14:07:19;1.88;;;1.10;;
36321;SDS011;23564;48.290;11.460;2022-08-01T14:09:45;6.97;;;1.10;;
36321;SDS011;23564;48.290;11.460;2022-08-01T14:12:10;1.40;;;1.00;;
36321;SDS011;23564;48.290;11.460;2022-08-01T14:14:36;3.17;;;1.13;;
36321;SDS011;23564;48.290;11.460;2022-08-01T14:17:03;6.03;;;1.20;;
36321;SDS011;23564;48.290;11.460;2022-08-01T14:19:29;1.25;;;0.80;;
36321;SDS011;23564;48.290;11.460;2022-08-01T14:21:55;1.08;;;0.98;;
36321;SDS011;23564;48.290;11.460;2022-08-01T14:24:21;6.22;;;1.35;;
36321;SDS011;23564;48.290;11.460;2022-08-01T14:26:48;2.83;;;1.05;;
36321;SDS011;23564;48.290;11.460;2022-08-01T14:29:14;3.08;;;1.45;;
36321;SDS011;23564;48.290;11.460;2022-08-01T14:31:39;1.73;;;1.05;;
36321;SDS011;23564;48.290;11.460;2022-08-01T14:34:05;2.28;;;1.13;;
36321;SDS011;23564;48.290;11.460;2022-08-01T14:36:31;3.88;;;1.50;;
36321;SDS011;23564;48.290;11.460;2022-08-01T14:38:57;5.28;;;1.00;;
36321;SDS011;23564;48.290;11.460;2022-08-01T14:41:23;3.47;;;1.30;;
36321;SDS011;23564;48.290;11.460;2022-08-01T14:43:49;2.53;;;1.30;;
36321;SDS011;23564;48.290;11.460;2022-08-01T14:46:14;3.45;;;1.60;;
36321;SDS011;23564;48.290;11.460;2022-08-01T14:48:40;5.95;;;1.10;;
36321;SDS011;23564;48.290;11.460;2022-08-01T14:51:06;7.57;;;1.73;;
36321;SDS011;23564;48.290;11.460;2022-08-01T14:53:32;4.15;;;1.65;;
36321;SDS011;23564;48.290;11.460;2022-08-01T14:55:58;4.75;;;1.65;;
36321;SDS011;23564;48.290;11.460;2022-08-01T14:58:24;5.50;;;1.80;;
36321;SDS011;23564;48.290;11.460;2022-08-01T15:00:50;6.68;;;1.70;;
36321;SDS011;23564;48.290;11.460;2022-08-01T15:03:19;4.82;;;1.38;;
36321;SDS011;23564;48.290;11.460;2022-08-01T15:05:45;7.63;;;1.80;;
36321;SDS011;23564;48.290;11.460;2022-08-01T15:08:11;3.10;;;1.65;;
36321;SDS011;23564;48.290;11.460;2022-08-01T15:10:36;6.70;;;1.50;;